nws-alerts: Checking more than four warning/county codes can delay the loading of your pages. You should use a cron job to get the data.
EllijayWeather Station Historical Data
Daily Summary for October 5, 2018 Units:  English    Metric   Both
Daily Weekly Monthly Yearly Custom
  High: Low: Average:
Temperature: 84.4 °F 61.9 °F 71.9 °F
Dew Point: 73.9 °F 52.9 °F 62.9 °F
Humidity: 82% 65% 73%
Wind Speed: 4mph 0mph 0.1mph
Wind Gust: 6mph - -
Wind- - SW
Pressure: 30.16 in 30.05 in -
Precipitation: 0 in    
Historical Graphs
 
 
Tabular Data for October 5, 2018
Time Temperature Dew Point Pressure Wind Wind Speed Wind Gust Humidity Rainfall Rate (Hourly) solar
00:04 67.8 °F 59.5 °F 30.12 in Calm     75% 0 in meteobridge W/m2
00:09 67.8 °F 59.5 °F 30.12 in Calm     75% 0 in meteobridge W/m2
00:14 67.8 °F 59.5 °F 30.12 in Calm     75% 0 in meteobridge W/m2
00:19 67.6 °F 59.4 °F 30.11 in Calm     75% 0 in meteobridge W/m2
00:24 67.6 °F 59.4 °F 30.11 in Calm     75% 0 in meteobridge W/m2
00:29 67.5 °F 59.2 °F 30.11 in Calm     75% 0 in meteobridge W/m2
00:34 67.5 °F 59.2 °F 30.11 in Calm     75% 0 in meteobridge W/m2
00:39 67.3 °F 59 °F 30.11 in Calm     75% 0 in meteobridge W/m2
00:44 67.3 °F 59 °F 30.11 in Calm     75% 0 in meteobridge W/m2
00:49 67.1 °F 58.8 °F 30.11 in Calm     75% 0 in meteobridge W/m2
00:54 66.9 °F 58.8 °F 30.11 in Calm     75% 0 in meteobridge W/m2
00:59 66.9 °F 58.3 °F 30.11 in Calm     74% 0 in meteobridge W/m2
01:04 66.7 °F 58.1 °F 30.10 in Calm     74% 0 in meteobridge W/m2
01:09 66.7 °F 58.1 °F 30.10 in Calm     74% 0 in meteobridge W/m2
01:14 66.7 °F 58.1 °F 30.10 in Calm     74% 0 in meteobridge W/m2
01:19 66.6 °F 58.1 °F 30.10 in Calm     74% 0 in meteobridge W/m2
01:24 66.6 °F 58.1 °F 30.10 in Calm     74% 0 in meteobridge W/m2
01:29 66.6 °F 58.1 °F 30.10 in Calm     74% 0 in meteobridge W/m2
01:34 66.4 °F 57.9 °F 30.10 in Calm     74% 0 in meteobridge W/m2
01:39 66.4 °F 57.9 °F 30.10 in Calm     74% 0 in meteobridge W/m2
01:44 66.4 °F 57.9 °F 30.10 in Calm     74% 0 in meteobridge W/m2
01:49 66.2 °F 57.7 °F 30.10 in Calm     74% 0 in meteobridge W/m2
01:54 66 °F 57.6 °F 30.10 in Calm     74% 0 in meteobridge W/m2
01:59 66 °F 57.6 °F 30.10 in Calm     74% 0 in meteobridge W/m2
02:04 65.8 °F 57.4 °F 30.10 in Calm     74% 0 in meteobridge W/m2
02:09 65.8 °F 57.4 °F 30.10 in Calm     74% 0 in meteobridge W/m2
02:14 65.8 °F 57.4 °F 30.10 in Calm     74% 0 in meteobridge W/m2
02:19 65.7 °F 57.2 °F 30.10 in Calm     74% 0 in meteobridge W/m2
02:24 65.7 °F 57.2 °F 30.10 in Calm     74% 0 in meteobridge W/m2
02:29 65.5 °F 57 °F 30.10 in Calm     74% 0 in meteobridge W/m2
02:34 65.5 °F 57 °F 30.10 in Calm     74% 0 in meteobridge W/m2
02:39 65.5 °F 57 °F 30.10 in Calm     74% 0 in meteobridge W/m2
02:44 65.3 °F 56.8 °F 30.10 in Calm     74% 0 in meteobridge W/m2
02:49 65.3 °F 56.8 °F 30.10 in Calm     74% 0 in meteobridge W/m2
02:54 65.1 °F 56.7 °F 30.10 in Calm     74% 0 in meteobridge W/m2
02:59 65.1 °F 56.7 °F 30.10 in Calm     74% 0 in meteobridge W/m2
03:04 65.1 °F 56.7 °F 30.10 in Calm     74% 0 in meteobridge W/m2
03:09 64.9 °F 56.5 °F 30.10 in Calm     74% 0 in meteobridge W/m2
03:14 64.9 °F 56.1 °F 30.10 in Calm     73% 0 in meteobridge W/m2
03:19 64.9 °F 56.5 °F 30.10 in Calm     74% 0 in meteobridge W/m2
03:24 64.9 °F 56.5 °F 30.10 in Calm     74% 0 in meteobridge W/m2
03:29 64.8 °F 56.3 °F 30.10 in Calm     74% 0 in meteobridge W/m2
03:34 64.8 °F 56.3 °F 30.10 in Calm     74% 0 in meteobridge W/m2
03:39 64.8 °F 55.9 °F 30.10 in Calm     73% 0 in meteobridge W/m2
03:44 64.8 °F 55.9 °F 30.10 in Calm     73% 0 in meteobridge W/m2
03:49 64.6 °F 55.8 °F 30.10 in Calm     73% 0 in meteobridge W/m2
03:54 64.6 °F 55.8 °F 30.10 in Calm     73% 0 in meteobridge W/m2
03:59 64.6 °F 55.8 °F 30.10 in Calm     73% 0 in meteobridge W/m2
04:04 64.6 °F 55.8 °F 30.10 in Calm     73% 0 in meteobridge W/m2
04:09 64.4 °F 55.6 °F 30.10 in Calm     73% 0 in meteobridge W/m2
04:14 64.4 °F 55.6 °F 30.10 in Calm     73% 0 in meteobridge W/m2
04:19 64.2 °F 55.4 °F 30.11 in Calm     73% 0 in meteobridge W/m2
04:24 64.2 °F 55.4 °F 30.11 in Calm     73% 0 in meteobridge W/m2
04:28 64.2 °F 55.4 °F 30.11 in Calm     73% 0 in meteobridge W/m2
04:34 64.2 °F 55.4 °F 30.10 in Calm     73% 0 in meteobridge W/m2
04:39 64 °F 55.2 °F 30.11 in Calm     73% 0 in meteobridge W/m2
04:43 64 °F 55.2 °F 30.11 in Calm     73% 0 in meteobridge W/m2
04:49 64 °F 55.2 °F 30.11 in Calm     73% 0 in meteobridge W/m2
04:54 64 °F 55.2 °F 30.11 in Calm     73% 0 in meteobridge W/m2
04:59 63.9 °F 55 °F 30.11 in Calm     73% 0 in meteobridge W/m2
05:04 63.9 °F 55 °F 30.11 in Calm     73% 0 in meteobridge W/m2
05:09 63.7 °F 54.9 °F 30.11 in Calm     73% 0 in meteobridge W/m2
05:14 63.7 °F 54.9 °F 30.11 in Calm     73% 0 in meteobridge W/m2
05:19 63.5 °F 54.7 °F 30.11 in Calm     73% 0 in meteobridge W/m2
05:24 63.5 °F 54.7 °F 30.11 in Calm     73% 0 in meteobridge W/m2
05:29 63.5 °F 54.7 °F 30.11 in Calm     73% 0 in meteobridge W/m2
05:34 63.3 °F 54.5 °F 30.11 in Calm     73% 0 in meteobridge W/m2
05:39 63.3 °F 54.5 °F 30.11 in Calm     73% 0 in meteobridge W/m2
05:44 63.3 °F 54.5 °F 30.11 in Calm     73% 0 in meteobridge W/m2
05:49 63.1 °F 54.3 °F 30.11 in Calm     73% 0 in meteobridge W/m2
05:54 63.1 °F 54.3 °F 30.12 in Calm     73% 0 in meteobridge W/m2
05:59 63 °F 54.1 °F 30.12 in Calm     73% 0 in meteobridge W/m2
06:04 63 °F 54.1 °F 30.12 in Calm     73% 0 in meteobridge W/m2
06:09 63 °F 54.1 °F 30.12 in Calm     73% 0 in meteobridge W/m2
06:14 63 °F 54.1 °F 30.12 in Calm     73% 0 in meteobridge W/m2
06:19 63 °F 54.1 °F 30.12 in Calm     73% 0 in meteobridge W/m2
06:24 62.8 °F 54 °F 30.13 in Calm     73% 0 in meteobridge W/m2
06:29 62.8 °F 54 °F 30.13 in Calm     73% 0 in meteobridge W/m2
06:34 62.8 °F 54 °F 30.13 in Calm     73% 0 in meteobridge W/m2
06:39 62.8 °F 54 °F 30.13 in Calm     73% 0 in meteobridge W/m2
06:44 62.8 °F 54 °F 30.13 in Calm     73% 0 in meteobridge W/m2
06:49 62.8 °F 54 °F 30.14 in Calm     73% 0 in meteobridge W/m2
06:54 62.8 °F 54 °F 30.14 in Calm     73% 0 in meteobridge W/m2
06:59 62.6 °F 53.8 °F 30.14 in Calm     73% 0 in meteobridge W/m2
07:04 62.6 °F 53.8 °F 30.14 in Calm     73% 0 in meteobridge W/m2
07:09 62.6 °F 53.8 °F 30.14 in Calm     73% 0 in meteobridge W/m2
07:14 62.4 °F 53.6 °F 30.14 in Calm     73% 0 in meteobridge W/m2
07:19 62.4 °F 53.6 °F 30.14 in Calm     73% 0 in meteobridge W/m2
07:24 62.2 °F 53.4 °F 30.14 in Calm     73% 0 in meteobridge W/m2
07:29 62.2 °F 53.4 °F 30.14 in Calm     73% 0 in meteobridge W/m2
07:34 62.2 °F 53.4 °F 30.14 in Calm     73% 0 in meteobridge W/m2
07:39 62.2 °F 53.4 °F 30.14 in Calm     73% 0 in meteobridge W/m2
07:44 62.1 °F 53.2 °F 30.15 in Calm     73% 0 in meteobridge W/m2
07:49 62.1 °F 53.2 °F 30.15 in Calm     73% 0 in meteobridge W/m2
07:54 62.1 °F 53.2 °F 30.15 in Calm     73% 0 in meteobridge W/m2
07:59 61.9 °F 53.1 °F 30.15 in Calm     73% 0 in meteobridge W/m2
08:03 62.1 °F 53.2 °F 30.15 in Calm     73% 0 in meteobridge W/m2
08:09 62.1 °F 53.2 °F 30.15 in Calm     73% 0 in meteobridge W/m2
08:14 62.1 °F 53.2 °F 30.15 in Calm     73% 0 in meteobridge W/m2
08:19 62.1 °F 52.9 °F 30.15 in Calm     72% 0 in meteobridge W/m2
08:24 62.1 °F 52.9 °F 30.15 in Calm     72% 0 in meteobridge W/m2
08:29 62.2 °F 53.1 °F 30.15 in Calm     72% 0 in meteobridge W/m2
08:34 62.2 °F 53.1 °F 30.15 in Calm     72% 0 in meteobridge W/m2
08:39 62.4 °F 53.2 °F 30.15 in Calm     72% 0 in meteobridge W/m2
08:44 62.4 °F 53.2 °F 30.16 in Calm     72% 0 in meteobridge W/m2
08:49 62.8 °F 53.6 °F 30.15 in Calm     72% 0 in meteobridge W/m2
08:54 63 °F 53.8 °F 30.15 in Calm     72% 0 in meteobridge W/m2
08:59 63.3 °F 53.8 °F 30.15 in Calm     71% 0 in meteobridge W/m2
09:04 63.7 °F 54.1 °F 30.16 in Calm     71% 0 in meteobridge W/m2
09:09 63.9 °F 54.3 °F 30.16 in Calm     71% 0 in meteobridge W/m2
09:14 64 °F 54.5 °F 30.16 in Calm     71% 0 in meteobridge W/m2
09:19 64.2 °F 54.7 °F 30.16 in Calm     71% 0 in meteobridge W/m2
09:24 64.4 °F 54.9 °F 30.16 in Calm     71% 0 in meteobridge W/m2
09:29 64.9 °F 55.4 °F 30.16 in Calm     71% 0 in meteobridge W/m2
09:34 65.3 °F 55.2 °F 30.16 in Calm     70% 0 in meteobridge W/m2
09:39 65.8 °F 55.8 °F 30.16 in Calm     70% 0 in meteobridge W/m2
09:43 66 °F 55.9 °F 30.16 in Calm     70% 0 in meteobridge W/m2
09:49 66.6 °F 56.5 °F 30.16 in Calm     70% 0 in meteobridge W/m2
09:54 66.9 °F 56.8 °F 30.16 in Calm     70% 0 in meteobridge W/m2
09:59 67.5 °F 57 °F 30.16 in Calm     69% 0 in meteobridge W/m2
10:04 67.8 °F 57.2 °F 30.16 in Calm     69% 0 in meteobridge W/m2
10:09 68.4 °F 57.7 °F 30.16 in Calm     69% 0 in meteobridge W/m2
10:14 68.7 °F 58.1 °F 30.15 in Calm     69% 0 in meteobridge W/m2
10:19 69.3 °F 58.6 °F 30.15 in Calm     69% 0 in meteobridge W/m2
10:24 69.6 °F 58.6 °F 30.15 in Calm     68% 0 in meteobridge W/m2
10:29 70.2 °F 59.2 °F 30.15 in Calm     68% 0 in meteobridge W/m2
10:34 70.7 °F 59.5 °F 30.15 in Calm     68% 0 in meteobridge W/m2
10:39 71.2 °F 60.1 °F 30.15 in Calm     68% 0 in meteobridge W/m2
10:44 72 °F 60.4 °F 30.15 in Calm     67% 0 in meteobridge W/m2
10:49 72.3 °F 61.2 °F 30.15 in Calm     68% 0 in meteobridge W/m2
10:54 72.9 °F 62.4 °F 30.15 in Calm     70% 0 in meteobridge W/m2
10:59 73.2 °F 64 °F 30.15 in Calm     73% 0 in meteobridge W/m2
11:04 73.6 °F 66.7 °F 30.15 in Calm   3 mph 79% 0 in meteobridge W/m2
11:09 74.1 °F 68 °F 30.15 in Calm     81% 0 in meteobridge W/m2
11:14 75 °F 68.7 °F 30.15 in Calm     81% 0 in meteobridge W/m2
11:19 75.6 °F 69.6 °F 30.15 in Calm     82% 0 in meteobridge W/m2
11:24 75.9 °F 70 °F 30.14 in Calm     82% 0 in meteobridge W/m2
11:29 76.6 °F 70.7 °F 30.14 in Calm     82% 0 in meteobridge W/m2
11:34 77.2 °F 70.5 °F 30.14 in Calm   3 mph 80% 0 in meteobridge W/m2
11:39 77.7 °F 71.4 °F 30.14 in Calm   1 mph 81% 0 in meteobridge W/m2
11:44 78.1 °F 70.7 °F 30.14 in Calm   2 mph 78% 0 in meteobridge W/m2
11:49 78.4 °F 70.7 °F 30.14 in Calm   1 mph 77% 0 in meteobridge W/m2
11:54 79.2 °F 70.9 °F 30.14 in Calm   1 mph 76% 0 in meteobridge W/m2
11:59 79.5 °F 71.2 °F 30.14 in North 0.9 mph 1 mph 76% 0 in meteobridge W/m2
12:04 79.9 °F 70.9 °F 30.14 in NW 2 mph 4 mph 74% 0 in meteobridge W/m2
12:09 80.2 °F 72 °F 30.14 in WNW 2.9 mph 4 mph 76% 0 in meteobridge W/m2
12:14 80.4 °F 71.8 °F 30.13 in Calm     75% 0 in meteobridge W/m2
12:19 80.4 °F 71.4 °F 30.13 in Calm   1 mph 74% 0 in meteobridge W/m2
12:24 80.6 °F 71.6 °F 30.13 in Calm     74% 0 in meteobridge W/m2
12:29 80.8 °F 72.5 °F 30.13 in Calm     76% 0 in meteobridge W/m2
12:34 80.8 °F 70.9 °F 30.13 in Calm   1 mph 72% 0 in meteobridge W/m2
12:39 81 °F 70.7 °F 30.13 in West 4 mph 4 mph 71% 0 in meteobridge W/m2
12:44 81.1 °F 70.3 °F 30.13 in Calm     70% 0 in meteobridge W/m2
12:49 81.7 °F 70.9 °F 30.12 in Calm   2 mph 70% 0 in meteobridge W/m2
12:54 82 °F 70.9 °F 30.12 in Calm     69% 0 in meteobridge W/m2
12:59 82.2 °F 72 °F 30.12 in Calm     71% 0 in meteobridge W/m2
13:04 82.2 °F 71.4 °F 30.12 in Calm   1 mph 70% 0 in meteobridge W/m2
13:09 82.6 °F 71.4 °F 30.12 in Calm     69% 0 in meteobridge W/m2
13:14 82.6 °F 72.1 °F 30.11 in Calm   3 mph 71% 0 in meteobridge W/m2
13:19 82.8 °F 71.1 °F 30.11 in NNW 0.9 mph 1 mph 68% 0 in meteobridge W/m2
13:24 82.9 °F 70.3 °F 30.11 in Calm   1 mph 66% 0 in meteobridge W/m2
13:29 82.9 °F 70.9 °F 30.11 in Calm     67% 0 in meteobridge W/m2
13:34 83.1 °F 70.2 °F 30.11 in Calm   1 mph 65% 0 in meteobridge W/m2
13:39 83.1 °F 70.2 °F 30.11 in Calm   3 mph 65% 0 in meteobridge W/m2
13:44 83.5 °F 71.8 °F 30.11 in Calm     68% 0 in meteobridge W/m2
13:49 83.3 °F 71.2 °F 30.10 in Calm     67% 0 in meteobridge W/m2
13:54 83.1 °F 71.1 °F 30.10 in Calm   1 mph 67% 0 in meteobridge W/m2
13:59 83.3 °F 71.2 °F 30.10 in Calm   1 mph 67% 0 in meteobridge W/m2
14:04 83.7 °F 72 °F 30.09 in Calm   1 mph 68% 0 in meteobridge W/m2
14:09 83.8 °F 71.2 °F 30.09 in Calm   5 mph 66% 0 in meteobridge W/m2
14:14 84 °F 72 °F 30.09 in Calm   3 mph 67% 0 in meteobridge W/m2
14:19 84.4 °F 72.7 °F 30.09 in Calm   5 mph 68% 0 in meteobridge W/m2
14:24 84 °F 71.4 °F 30.09 in Calm   6 mph 66% 0 in meteobridge W/m2
14:29 83.8 °F 71.8 °F 30.09 in Calm   1 mph 67% 0 in meteobridge W/m2
14:34 83.5 °F 71.8 °F 30.09 in Calm     68% 0 in meteobridge W/m2
14:39 83.1 °F 71.4 °F 30.08 in Calm   2 mph 68% 0 in meteobridge W/m2
14:44 82.8 °F 72 °F 30.08 in Calm   1 mph 70% 0 in meteobridge W/m2
14:49 82.8 °F 72 °F 30.08 in Calm   3 mph 70% 0 in meteobridge W/m2
14:54 82.6 °F 73 °F 30.08 in ENE 0.9 mph 2 mph 73% 0 in meteobridge W/m2
14:59 82.8 °F 72.3 °F 30.08 in Calm   5 mph 71% 0 in meteobridge W/m2
15:04 82.8 °F 72 °F 30.08 in Calm   2 mph 70% 0 in meteobridge W/m2
15:09 82.9 °F 72.1 °F 30.07 in Calm   1 mph 70% 0 in meteobridge W/m2
15:14 83.1 °F 72.7 °F 30.07 in NW 4 mph 4 mph 71% 0 in meteobridge W/m2
15:19 82.9 °F 71.8 °F 30.07 in Calm     69% 0 in meteobridge W/m2
15:24 82.9 °F 72.1 °F 30.07 in Calm     70% 0 in meteobridge W/m2
15:29 83.1 °F 71.4 °F 30.07 in NNE 2 mph 3 mph 68% 0 in meteobridge W/m2
15:34 83.3 °F 71.2 °F 30.07 in Calm   3 mph 67% 0 in meteobridge W/m2
15:39 83.5 °F 70.9 °F 30.06 in Calm   3 mph 66% 0 in meteobridge W/m2
15:44 83.5 °F 70.9 °F 30.06 in Calm   1 mph 66% 0 in meteobridge W/m2
15:49 83.5 °F 71.8 °F 30.06 in Calm     68% 0 in meteobridge W/m2
15:54 83.5 °F 71.4 °F 30.06 in NW 2 mph 4 mph 67% 0 in meteobridge W/m2
15:59 83.5 °F 70.9 °F 30.06 in NNE 0.9 mph 3 mph 66% 0 in meteobridge W/m2
16:04 83.7 °F 71.1 °F 30.06 in Calm   1 mph 66% 0 in meteobridge W/m2
16:09 83.7 °F 72.3 °F 30.06 in Calm     69% 0 in meteobridge W/m2
16:14 83.7 °F 72.9 °F 30.06 in Calm     70% 0 in meteobridge W/m2
16:19 83.3 °F 70.3 °F 30.06 in Calm     65% 0 in meteobridge W/m2
16:24 83.1 °F 71.4 °F 30.06 in Calm     68% 0 in meteobridge W/m2
16:29 83.1 °F 72 °F 30.05 in Calm     69% 0 in meteobridge W/m2
16:34 82.9 °F 72.1 °F 30.06 in Calm     70% 0 in meteobridge W/m2
16:39 82.9 °F 72.5 °F 30.06 in Calm     71% 0 in meteobridge W/m2
16:44 82.9 °F 73.4 °F 30.05 in NW 0.9 mph 1 mph 73% 0 in meteobridge W/m2
16:49 82.8 °F 71.6 °F 30.05 in Calm     69% 0 in meteobridge W/m2
16:54 82.9 °F 70.3 °F 30.06 in NW 2 mph 2 mph 66% 0 in meteobridge W/m2
16:59 83.1 °F 70.2 °F 30.05 in Calm   1 mph 65% 0 in meteobridge W/m2
17:04 83.5 °F 71.4 °F 30.05 in Calm   1 mph 67% 0 in meteobridge W/m2
17:09 83.3 °F 70.3 °F 30.05 in Calm     65% 0 in meteobridge W/m2
17:14 83.1 °F 72.3 °F 30.05 in Calm     70% 0 in meteobridge W/m2
17:19 82.8 °F 71.6 °F 30.05 in Calm   1 mph 69% 0 in meteobridge W/m2
17:24 82.6 °F 73 °F 30.05 in Calm     73% 0 in meteobridge W/m2
17:29 82.6 °F 73.4 °F 30.05 in Calm     74% 0 in meteobridge W/m2
17:34 82.2 °F 73.9 °F 30.05 in Calm   1 mph 76% 0 in meteobridge W/m2
17:39 81.9 °F 72.3 °F 30.06 in Calm     73% 0 in meteobridge W/m2
17:44 81.9 °F 71.6 °F 30.06 in Calm     71% 0 in meteobridge W/m2
17:49 81.9 °F 70.7 °F 30.06 in Calm   1 mph 69% 0 in meteobridge W/m2
17:54 82 °F 72.9 °F 30.06 in Calm     74% 0 in meteobridge W/m2
17:59 81.9 °F 73.2 °F 30.06 in Calm     75% 0 in meteobridge W/m2
18:04 81.3 °F 73 °F 30.06 in Calm     76% 0 in meteobridge W/m2
18:09 81 °F 73.4 °F 30.06 in Calm     78% 0 in meteobridge W/m2
18:13 80.4 °F 72.9 °F 30.06 in Calm     78% 0 in meteobridge W/m2
18:19 79.9 °F 72.9 °F 30.06 in Calm     79% 0 in meteobridge W/m2
18:24 79.2 °F 72.5 °F 30.06 in Calm     80% 0 in meteobridge W/m2
18:29 78.8 °F 72.1 °F 30.06 in Calm     80% 0 in meteobridge W/m2
18:34 78.4 °F 72.1 °F 30.06 in Calm     81% 0 in meteobridge W/m2
18:39 78.1 °F 71.8 °F 30.06 in Calm     81% 0 in meteobridge W/m2
18:44 77.7 °F 71.4 °F 30.07 in Calm     81% 0 in meteobridge W/m2
18:49 77.4 °F 71.4 °F 30.07 in Calm     82% 0 in meteobridge W/m2
18:54 77.2 °F 71.2 °F 30.07 in Calm     82% 0 in meteobridge W/m2
18:59 76.8 °F 70.9 °F 30.07 in Calm     82% 0 in meteobridge W/m2
19:04 76.6 °F 70.7 °F 30.07 in Calm     82% 0 in meteobridge W/m2
19:09 76.5 °F 70.5 °F 30.07 in Calm     82% 0 in meteobridge W/m2
19:14 76.5 °F 70.5 °F 30.07 in Calm     82% 0 in meteobridge W/m2
19:19 76.3 °F 70.3 °F 30.08 in Calm     82% 0 in meteobridge W/m2
19:24 75.9 °F 69.6 °F 30.08 in Calm     81% 0 in meteobridge W/m2
19:29 75.9 °F 69.6 °F 30.08 in Calm     81% 0 in meteobridge W/m2
19:34 75.7 °F 69.4 °F 30.08 in Calm     81% 0 in meteobridge W/m2
19:39 75.6 °F 69.6 °F 30.08 in Calm     82% 0 in meteobridge W/m2
19:44 75 °F 68.7 °F 30.08 in Calm     81% 0 in meteobridge W/m2
19:49 74.8 °F 68.5 °F 30.08 in Calm     81% 0 in meteobridge W/m2
19:54 74.7 °F 68.4 °F 30.08 in Calm     81% 0 in meteobridge W/m2
19:59 74.5 °F 68.2 °F 30.09 in Calm     81% 0 in meteobridge W/m2
20:04 74.1 °F 68 °F 30.09 in Calm     81% 0 in meteobridge W/m2
20:09 74.1 °F 67.6 °F 30.09 in Calm     80% 0 in meteobridge W/m2
20:14 73.8 °F 67.3 °F 30.09 in Calm     80% 0 in meteobridge W/m2
20:19 73.6 °F 67.1 °F 30.09 in Calm     80% 0 in meteobridge W/m2
20:24 73.2 °F 66.4 °F 30.09 in Calm     79% 0 in meteobridge W/m2
20:29 73 °F 66.2 °F 30.09 in Calm     79% 0 in meteobridge W/m2
20:34 73 °F 66.2 °F 30.09 in Calm     79% 0 in meteobridge W/m2
20:39 72.9 °F 65.7 °F 30.10 in Calm     78% 0 in meteobridge W/m2
20:44 72.7 °F 65.5 °F 30.10 in Calm     78% 0 in meteobridge W/m2
20:49 72.5 °F 64.9 °F 30.10 in Calm     77% 0 in meteobridge W/m2
20:54 72.3 °F 64.8 °F 30.10 in Calm     77% 0 in meteobridge W/m2
20:59 72.1 °F 64.6 °F 30.10 in Calm     77% 0 in meteobridge W/m2
21:04 72.1 °F 64.6 °F 30.10 in Calm     77% 0 in meteobridge W/m2
21:09 72 °F 64.4 °F 30.11 in Calm     77% 0 in meteobridge W/m2
21:14 71.8 °F 63.9 °F 30.11 in Calm     76% 0 in meteobridge W/m2
21:19 71.8 °F 63.9 °F 30.11 in Calm     76% 0 in meteobridge W/m2
21:24 71.6 °F 63.7 °F 30.11 in Calm     76% 0 in meteobridge W/m2
21:29 71.4 °F 63.1 °F 30.11 in Calm     75% 0 in meteobridge W/m2
21:34 71.2 °F 63 °F 30.11 in Calm     75% 0 in meteobridge W/m2
21:39 71.2 °F 63 °F 30.11 in Calm     75% 0 in meteobridge W/m2
21:44 71.2 °F 63 °F 30.11 in Calm     75% 0 in meteobridge W/m2
21:49 71.1 °F 62.8 °F 30.11 in Calm     75% 0 in meteobridge W/m2
21:54 71.1 °F 62.4 °F 30.11 in Calm     74% 0 in meteobridge W/m2
21:59 70.9 °F 62.2 °F 30.11 in Calm     74% 0 in meteobridge W/m2
22:04 70.9 °F 62.2 °F 30.11 in Calm     74% 0 in meteobridge W/m2
22:09 70.7 °F 62.1 °F 30.11 in Calm     74% 0 in meteobridge W/m2
22:14 70.5 °F 61.9 °F 30.12 in Calm     74% 0 in meteobridge W/m2
22:19 70.5 °F 61.9 °F 30.12 in Calm     74% 0 in meteobridge W/m2
22:24 70.5 °F 61.5 °F 30.12 in Calm     73% 0 in meteobridge W/m2
22:29 70.3 °F 61.3 °F 30.12 in Calm     73% 0 in meteobridge W/m2
22:34 70.3 °F 61.3 °F 30.12 in Calm     73% 0 in meteobridge W/m2
22:39 70.2 °F 61.2 °F 30.12 in Calm     73% 0 in meteobridge W/m2
22:44 70.2 °F 61.2 °F 30.12 in Calm     73% 0 in meteobridge W/m2
22:49 70.2 °F 61.2 °F 30.12 in Calm     73% 0 in meteobridge W/m2
22:54 70 °F 61 °F 30.12 in Calm     73% 0 in meteobridge W/m2
22:59 70 °F 61 °F 30.12 in Calm     73% 0 in meteobridge W/m2
23:04 69.8 °F 60.8 °F 30.12 in Calm     73% 0 in meteobridge W/m2
23:09 69.6 °F 60.6 °F 30.12 in Calm     73% 0 in meteobridge W/m2
23:14 69.6 °F 60.6 °F 30.12 in Calm     73% 0 in meteobridge W/m2
23:19 69.4 °F 60.1 °F 30.12 in Calm     72% 0 in meteobridge W/m2
23:24 69.4 °F 60.1 °F 30.12 in Calm     72% 0 in meteobridge W/m2
23:29 69.3 °F 59.9 °F 30.12 in Calm     72% 0 in meteobridge W/m2
23:34 69.3 °F 59.9 °F 30.12 in Calm     72% 0 in meteobridge W/m2
23:39 69.1 °F 59.7 °F 30.12 in Calm     72% 0 in meteobridge W/m2
23:44 69.1 °F 59.7 °F 30.12 in Calm     72% 0 in meteobridge W/m2
23:49 69.1 °F 59.7 °F 30.12 in Calm     72% 0 in meteobridge W/m2
23:54 68.9 °F 59.5 °F 30.12 in Calm     72% 0 in meteobridge W/m2
23:59 68.7 °F 59.4 °F 30.12 in Calm     72% 0 in meteobridge W/m2
EllijayWeather
Compliments of Weather Underground - 2.5 mb